createdAt,value
2019-06-08T00:04:03.025Z,90.50
2019-06-08T00:08:57.040Z,91.10
2019-06-08T00:11:24.328Z,90.90
2019-06-08T00:13:51.322Z,90.80
2019-06-08T00:18:45.265Z,91.30
2019-06-08T00:21:13.418Z,90.60
2019-06-08T00:26:06.375Z,91.10
2019-06-08T00:28:33.333Z,90.80
2019-06-08T00:33:27.304Z,91.00
2019-06-08T00:38:21.297Z,90.00
2019-06-08T00:43:15.306Z,90.90
2019-06-08T00:45:42.243Z,90.70
2019-06-08T00:48:09.206Z,90.70
2019-06-08T00:50:36.144Z,91.10
2019-06-08T00:57:57.148Z,90.10
2019-06-08T01:10:12.241Z,90.80
2019-06-08T01:12:39.531Z,91.10
2019-06-08T01:17:33.554Z,90.40
2019-06-08T01:51:52.014Z,88.00
2019-06-08T02:01:40.020Z,87.10
2019-06-08T02:53:15.140Z,86.40
2019-06-08T03:37:28.295Z,84.50
2019-06-08T05:47:24.491Z,73.20
2019-06-08T06:46:13.561Z,66.20
2019-06-08T07:23:01.392Z,56.80
2019-06-08T07:25:28.332Z,55.90
2019-06-08T07:30:22.358Z,55.40
2019-06-08T07:32:49.261Z,55.70
2019-06-08T07:49:59.652Z,51.80
2019-06-08T08:02:15.156Z,51.70
2019-06-08T08:12:03.212Z,49.80
2019-06-08T08:14:30.184Z,50.40
2019-06-08T08:16:57.270Z,50.70
2019-06-08T08:19:24.084Z,48.00
2019-06-08T08:21:54.398Z,48.00
2019-06-08T08:26:49.558Z,47.00
2019-06-08T08:29:13.369Z,47.60
2019-06-08T08:34:08.991Z,43.00
2019-06-08T08:39:02.546Z,41.80
2019-06-08T08:41:28.360Z,41.80
2019-06-08T08:43:58.462Z,39.20
2019-06-08T08:46:22.575Z,38.70
2019-06-08T08:48:50.896Z,39.20
2019-06-08T08:51:17.983Z,39.10
2019-06-08T08:56:10.615Z,38.80
2019-06-08T08:58:38.046Z,39.60
2019-06-08T09:13:19.944Z,36.40
2019-06-08T09:15:47.960Z,37.00
2019-06-08T09:18:13.955Z,35.80
2019-06-08T09:20:40.971Z,37.70
2019-06-08T09:28:04.797Z,37.30
2019-06-08T09:30:30.202Z,37.30
2019-06-08T09:35:24.298Z,36.60
2019-06-08T09:37:53.149Z,36.60
2019-06-08T09:40:18.277Z,36.70
2019-06-08T09:42:45.229Z,34.80
2019-06-08T09:47:39.248Z,33.90
2019-06-08T09:50:08.959Z,35.00
2019-06-08T09:52:33.219Z,35.50
2019-06-08T09:55:03.620Z,35.10
2019-06-08T09:59:56.081Z,31.80
2019-06-08T10:02:21.080Z,33.40
2019-06-08T10:04:48.459Z,32.50
2019-06-08T10:07:14.996Z,32.90
2019-06-08T10:09:43.457Z,32.90
2019-06-08T10:12:09.831Z,33.70
2019-06-08T10:14:38.007Z,34.00
2019-06-08T10:17:04.307Z,31.10
2019-06-08T10:19:29.878Z,31.40
2019-06-08T10:21:56.952Z,30.60
2019-06-08T10:26:51.132Z,29.90
2019-06-08T10:29:18.620Z,30.40
2019-06-08T10:31:48.185Z,32.10
2019-06-08T10:34:12.400Z,30.60
2019-06-08T10:36:39.347Z,30.60
2019-06-08T10:39:11.082Z,31.10
2019-06-08T10:41:33.312Z,29.20
2019-06-08T10:44:01.304Z,28.60
2019-06-08T10:46:27.197Z,29.10
2019-06-08T10:48:54.223Z,28.40
2019-06-08T10:51:21.137Z,27.60
2019-06-08T10:53:52.526Z,28.10
2019-06-08T10:56:15.138Z,28.30
2019-06-08T10:58:42.032Z,28.60
2019-06-08T11:01:12.087Z,27.30
2019-06-08T11:03:38.678Z,27.40
2019-06-08T11:06:04.404Z,27.80
2019-06-08T11:08:29.838Z,27.30
2019-06-08T11:10:57.924Z,27.30
2019-06-08T11:13:23.756Z,27.00
2019-06-08T11:15:50.718Z,27.60
2019-06-08T11:18:18.548Z,26.90
2019-06-08T11:20:47.755Z,27.30
2019-06-08T11:25:39.270Z,26.30
2019-06-08T11:28:11.790Z,27.60
2019-06-08T11:30:33.200Z,26.80
2019-06-08T11:33:01.995Z,27.10
2019-06-08T11:35:28.596Z,26.30
2019-06-08T11:37:54.124Z,26.70
2019-06-08T11:40:21.161Z,26.90
2019-06-08T11:42:48.523Z,27.20
2019-06-08T11:45:17.561Z,27.10
2019-06-08T11:47:42.046Z,27.00
2019-06-08T11:50:12.548Z,26.10
2019-06-08T11:52:38.218Z,26.10
2019-06-08T11:55:04.137Z,29.40
2019-06-08T11:57:30.506Z,28.60
2019-06-08T11:59:58.450Z,27.90
2019-06-08T12:02:24.385Z,27.70
2019-06-08T12:04:51.315Z,29.80
2019-06-08T12:07:18.291Z,27.50
2019-06-08T12:09:45.259Z,29.90
2019-06-08T12:12:15.400Z,29.00
2019-06-08T12:14:40.506Z,30.70
2019-06-08T12:17:08.931Z,31.80
2019-06-08T12:19:33.093Z,28.20
2019-06-08T12:22:00.037Z,28.50
2019-06-08T12:24:41.032Z,28.80
2019-06-08T12:27:00.162Z,28.10
2019-06-08T12:29:21.700Z,27.80
2019-06-08T12:31:48.702Z,28.10
2019-06-08T12:34:18.322Z,27.60
2019-06-08T12:36:42.629Z,28.00
2019-06-08T12:39:10.066Z,28.70
2019-06-08T12:41:37.782Z,27.70
2019-06-08T12:46:30.532Z,28.00
2019-06-08T12:48:58.318Z,27.60
2019-06-08T12:51:24.470Z,28.50
2019-06-08T12:53:51.411Z,28.60
2019-06-08T12:56:22.162Z,25.70
2019-06-08T12:58:47.405Z,26.20
2019-06-08T13:01:14.461Z,26.20
2019-06-08T13:03:39.989Z,26.90
2019-06-08T13:06:07.873Z,26.20
2019-06-08T13:08:33.945Z,27.10
2019-06-08T13:11:00.876Z,27.60
2019-06-08T13:13:28.390Z,27.20
2019-06-08T13:15:54.921Z,27.10
2019-06-08T13:18:21.873Z,26.10
2019-06-08T13:20:51.763Z,25.50
2019-06-08T13:23:18.303Z,26.90
2019-06-08T13:28:15.196Z,26.50
2019-06-08T13:30:38.935Z,26.60
2019-06-08T13:33:03.873Z,26.60
2019-06-08T13:35:30.835Z,27.10
2019-06-08T13:37:57.908Z,26.70
2019-06-08T13:40:24.850Z,27.20
2019-06-08T13:42:52.166Z,28.50
2019-06-08T13:45:21.735Z,29.00
2019-06-08T13:50:14.496Z,28.90
2019-06-08T13:52:40.789Z,29.60
2019-06-08T13:55:07.792Z,28.10
2019-06-08T13:57:34.736Z,28.00
2019-06-08T14:00:01.690Z,28.50
2019-06-08T14:02:31.670Z,29.60
2019-06-08T14:04:58.974Z,28.80
2019-06-08T14:07:27.386Z,31.00
2019-06-08T14:09:50.385Z,32.10
2019-06-08T14:14:44.348Z,31.00
2019-06-08T14:17:11.293Z,31.60
2019-06-08T14:19:38.627Z,32.00
2019-06-08T14:22:05.269Z,31.30
2019-06-08T14:24:34.662Z,31.80
2019-06-08T14:26:59.201Z,32.20
2019-06-08T14:29:28.705Z,32.00
2019-06-08T14:31:53.269Z,31.70
2019-06-08T14:34:22.110Z,32.20
2019-06-08T14:36:48.878Z,31.50
2019-06-08T14:39:14.132Z,32.20
2019-06-08T14:41:41.103Z,31.90
2019-06-08T14:44:08.349Z,32.10
2019-06-08T14:46:35.012Z,32.40
2019-06-08T14:49:01.960Z,33.30
2019-06-08T14:51:48.567Z,34.00
2019-06-08T14:54:18.488Z,33.70
2019-06-08T14:56:42.669Z,32.20
2019-06-08T14:59:09.712Z,33.00
2019-06-08T15:01:38.063Z,33.90
2019-06-08T15:04:03.612Z,32.90
2019-06-08T15:06:33.947Z,33.50
2019-06-08T15:08:58.237Z,33.10
2019-06-08T15:11:25.475Z,33.70
2019-06-08T15:13:51.420Z,33.70
2019-06-08T15:16:19.679Z,33.80
2019-06-08T15:18:45.311Z,34.50
2019-06-08T15:21:12.337Z,34.00
2019-06-08T15:26:20.651Z,33.80
2019-06-08T15:28:35.860Z,33.80
2019-06-08T15:31:02.578Z,34.40
2019-06-08T15:33:32.221Z,34.20
2019-06-08T15:40:50.605Z,33.60
2019-06-08T15:43:18.289Z,33.80
2019-06-08T15:45:44.564Z,34.70
2019-06-08T15:50:38.612Z,35.90
2019-06-08T15:53:08.058Z,35.90
2019-06-08T15:55:34.221Z,36.00
2019-06-08T16:00:28.116Z,35.60
2019-06-08T16:07:47.736Z,36.00
2019-06-08T16:10:14.668Z,35.60
2019-06-08T16:12:41.925Z,36.10
2019-06-08T16:15:08.836Z,35.50
2019-06-08T16:17:35.762Z,35.60
2019-06-08T16:20:02.791Z,35.20
2019-06-08T16:22:29.760Z,35.40
2019-06-08T16:24:56.707Z,35.50
2019-06-08T16:29:50.778Z,35.70
2019-06-08T16:32:18.363Z,35.50
2019-06-08T16:39:39.465Z,37.70
2019-06-08T16:49:29.110Z,37.80
2019-06-08T16:51:55.343Z,36.70
2019-06-08T16:54:22.281Z,37.10
2019-06-08T16:56:49.222Z,36.40
2019-06-08T17:01:43.219Z,36.00
2019-06-08T17:09:05.471Z,36.70
2019-06-08T17:31:08.994Z,37.70
2019-06-08T17:33:37.315Z,38.20
2019-06-08T17:36:04.107Z,38.20
2019-06-08T17:40:58.079Z,38.70
2019-06-08T17:50:46.926Z,38.60
2019-06-08T17:53:13.852Z,38.80
2019-06-08T17:55:41.841Z,38.80
2019-06-08T17:58:07.817Z,38.90
2019-06-08T18:00:35.328Z,39.30
2019-06-08T18:03:01.765Z,39.00
2019-06-08T18:07:57.689Z,38.70
2019-06-08T18:10:22.800Z,39.30
2019-06-08T18:17:45.234Z,40.50
2019-06-08T18:20:10.847Z,40.70
2019-06-08T18:27:32.006Z,41.60
2019-06-08T18:32:27.196Z,41.60
2019-06-08T18:49:37.519Z,43.90
2019-06-08T19:01:50.961Z,44.90
2019-06-08T19:04:17.984Z,45.40
2019-06-08T19:45:58.860Z,50.90
2019-06-08T20:00:42.350Z,51.80
2019-06-08T20:03:08.544Z,51.90
2019-06-08T20:05:37.792Z,52.40
2019-06-08T20:08:02.659Z,52.40
2019-06-08T20:10:29.752Z,52.60
2019-06-08T20:12:57.765Z,52.80
2019-06-08T20:15:24.041Z,52.70
2019-06-08T20:20:18.469Z,52.90
2019-06-08T20:22:46.696Z,53.00
2019-06-08T20:25:12.624Z,53.30
2019-06-08T20:27:39.653Z,53.80
2019-06-08T20:30:09.567Z,54.00
2019-06-08T20:32:33.657Z,54.50
2019-06-08T20:35:00.718Z,54.20
2019-06-08T20:37:28.399Z,54.20
2019-06-08T20:40:07.190Z,55.00
2019-06-08T20:42:21.985Z,55.60
2019-06-08T20:44:50.485Z,56.50
2019-06-08T20:47:17.874Z,57.00
2019-06-08T20:52:10.653Z,57.20
2019-06-08T20:57:17.530Z,60.00
2019-06-08T20:59:45.586Z,58.60
2019-06-08T21:02:11.632Z,58.70
2019-06-08T21:04:38.627Z,59.00
2019-06-08T21:07:07.996Z,59.30
2019-06-08T21:09:32.751Z,59.40
2019-06-08T21:16:54.973Z,59.40
2019-06-08T21:21:51.993Z,59.40
2019-06-08T21:24:17.372Z,59.70
2019-06-08T21:31:38.305Z,61.90
2019-06-08T21:44:01.678Z,63.40
2019-06-08T22:10:59.417Z,66.60
2019-06-08T22:13:24.354Z,67.60
2019-06-08T22:20:47.845Z,69.30
2019-06-08T22:23:13.145Z,69.60
2019-06-08T22:45:17.704Z,73.00
2019-06-08T22:47:44.403Z,73.90
2019-06-08T22:50:11.373Z,74.70
2019-06-08T22:52:38.393Z,74.20
2019-06-08T22:57:32.416Z,75.00
2019-06-08T23:02:27.847Z,77.10
2019-06-08T23:04:54.707Z,76.90
2019-06-08T23:07:28.561Z,77.60
2019-06-08T23:09:48.111Z,78.30
2019-06-08T23:12:18.047Z,78.60
2019-06-08T23:14:42.465Z,78.50
2019-06-08T23:17:09.396Z,78.40
2019-06-08T23:19:38.234Z,78.90
2019-06-08T23:22:06.188Z,79.60
2019-06-08T23:24:32.204Z,80.00
2019-06-08T23:27:00.008Z,80.70
2019-06-08T23:29:27.412Z,81.10
2019-06-08T23:31:54.243Z,81.00
2019-06-08T23:34:23.354Z,81.30
2019-06-08T23:39:17.990Z,81.40
2019-06-08T23:44:10.538Z,82.70
2019-06-08T23:46:38.070Z,83.10
2019-06-08T23:49:06.150Z,82.80
2019-06-08T23:51:31.455Z,83.10
2019-06-08T23:54:01.185Z,82.90
2019-06-08T23:56:27.583Z,83.20
2019-06-08T23:58:52.569Z,83.30
